createdAt,value
2019-05-17T00:00:37.373Z,3.17
2019-05-17T00:03:07.479Z,2.67
2019-05-17T00:05:37.603Z,2.60
2019-05-17T00:08:07.834Z,2.90
2019-05-17T00:10:37.725Z,5.60
2019-05-17T00:13:09.340Z,6.28
2019-05-17T00:15:38.278Z,7.05
2019-05-17T00:18:07.621Z,3.45
2019-05-17T00:20:37.671Z,2.98
2019-05-17T00:23:07.343Z,3.58
2019-05-17T00:25:37.089Z,3.20
2019-05-17T00:28:07.343Z,3.17
2019-05-17T00:30:37.431Z,2.30
2019-05-17T00:33:07.723Z,3.10
2019-05-17T00:35:37.887Z,3.75
2019-05-17T00:38:07.751Z,3.47
2019-05-17T00:40:37.098Z,3.22
2019-05-17T00:43:06.950Z,2.90
2019-05-17T00:45:37.655Z,2.47
2019-05-17T00:48:07.287Z,2.12
2019-05-17T00:50:37.911Z,2.87
2019-05-17T00:53:07.802Z,1.80
2019-05-17T00:55:37.227Z,2.77
2019-05-17T00:58:06.967Z,2.52
2019-05-17T01:00:37.650Z,3.05
2019-05-17T01:03:07.479Z,2.87
2019-05-17T01:05:37.155Z,3.42
2019-05-17T01:08:07.512Z,2.35
2019-05-17T01:10:37.291Z,2.77
2019-05-17T01:13:07.059Z,3.00
2019-05-17T01:15:37.075Z,2.35
2019-05-17T01:18:07.414Z,2.05
2019-05-17T01:20:37.287Z,2.90
2019-05-17T01:23:07.564Z,2.77
2019-05-17T01:25:38.195Z,2.42
2019-05-17T01:28:07.904Z,2.02
2019-05-17T01:30:37.686Z,1.98
2019-05-17T01:33:07.287Z,2.12
2019-05-17T01:35:37.350Z,2.22
2019-05-17T01:38:07.568Z,2.50
2019-05-17T01:40:37.487Z,1.82
2019-05-17T01:43:07.953Z,2.37
2019-05-17T01:45:37.469Z,3.00
2019-05-17T01:48:07.505Z,2.37
2019-05-17T01:50:37.610Z,2.52
2019-05-17T01:53:07.586Z,2.05
2019-05-17T01:55:37.722Z,2.77
2019-05-17T01:58:07.649Z,2.30
2019-05-17T02:00:37.758Z,2.08
2019-05-17T02:03:07.529Z,2.70
2019-05-17T02:05:37.441Z,2.52
2019-05-17T02:08:07.285Z,2.58
2019-05-17T02:10:37.640Z,2.35
2019-05-17T02:13:07.616Z,2.55
2019-05-17T02:15:38.024Z,3.10
2019-05-17T02:18:07.483Z,3.27
2019-05-17T02:20:37.441Z,4.67
2019-05-17T02:23:07.648Z,5.30
2019-05-17T02:25:37.203Z,4.03
2019-05-17T02:28:07.135Z,4.17
2019-05-17T02:30:36.535Z,6.12
2019-05-17T02:33:05.948Z,4.80
2019-05-17T02:35:35.323Z,3.72
2019-05-17T02:38:04.724Z,3.33
2019-05-17T02:40:34.449Z,2.35
2019-05-17T02:43:04.183Z,2.90
2019-05-17T02:45:33.588Z,2.40
2019-05-17T02:48:04.081Z,2.45
2019-05-17T02:50:33.851Z,3.45
2019-05-17T02:53:04.603Z,5.75
2019-05-17T02:55:34.332Z,13.55
2019-05-17T02:58:03.965Z,11.83
2019-05-17T03:00:34.257Z,11.40
2019-05-17T03:03:04.088Z,5.90
2019-05-17T03:05:34.219Z,4.20
2019-05-17T03:08:04.584Z,2.02
2019-05-17T03:10:34.373Z,2.60
2019-05-17T03:13:04.366Z,2.58
2019-05-17T03:15:34.191Z,2.40
2019-05-17T03:18:04.150Z,2.25
2019-05-17T03:20:33.619Z,2.15
2019-05-17T03:23:04.060Z,2.30
2019-05-17T03:25:34.047Z,2.20
2019-05-17T03:28:04.638Z,1.90
2019-05-17T03:30:37.184Z,2.75
2019-05-17T03:33:08.016Z,2.25
2019-05-17T03:35:38.301Z,2.50
2019-05-17T03:38:07.531Z,2.50
2019-05-17T03:41:06.111Z,1.90
2019-05-17T03:43:07.972Z,1.60
2019-05-17T03:45:37.381Z,1.72
2019-05-17T03:48:06.791Z,2.40
2019-05-17T03:50:36.183Z,2.10
2019-05-17T03:53:05.859Z,1.90
2019-05-17T03:55:35.297Z,1.77
2019-05-17T03:58:04.698Z,2.17
2019-05-17T04:00:35.412Z,2.22
2019-05-17T04:03:05.069Z,1.75
2019-05-17T04:05:34.399Z,1.70
2019-05-17T04:08:03.984Z,1.72
2019-05-17T04:10:33.984Z,1.85
2019-05-17T04:13:04.475Z,1.80
2019-05-17T04:15:34.172Z,1.90
2019-05-17T04:18:04.473Z,1.55
2019-05-17T04:20:34.096Z,1.90
2019-05-17T04:23:04.248Z,1.90
2019-05-17T04:25:34.064Z,1.82
2019-05-17T04:28:03.853Z,3.27
2019-05-17T04:30:33.262Z,2.30
2019-05-17T04:33:03.847Z,2.15
2019-05-17T04:35:33.495Z,3.10
2019-05-17T04:38:04.114Z,3.37
2019-05-17T04:40:34.352Z,2.45
2019-05-17T04:43:04.214Z,3.17
2019-05-17T04:45:34.118Z,2.10
2019-05-17T04:48:04.349Z,2.30
2019-05-17T04:50:34.055Z,3.02
2019-05-17T04:53:03.399Z,2.50
2019-05-17T04:55:34.214Z,1.30
2019-05-17T04:58:04.335Z,1.45
2019-05-17T05:00:34.378Z,1.45
2019-05-17T05:03:04.625Z,3.20
2019-05-17T05:05:34.178Z,6.25
2019-05-17T05:08:03.664Z,3.50
2019-05-17T05:10:36.092Z,1.90
2019-05-17T05:13:04.293Z,2.10
2019-05-17T05:15:44.143Z,5.30
2019-05-17T05:18:13.607Z,3.35
2019-05-17T05:20:44.041Z,5.12
2019-05-17T05:23:13.815Z,4.80
2019-05-17T05:25:43.882Z,2.90
2019-05-17T05:28:13.286Z,3.15
2019-05-17T05:30:42.628Z,5.15
2019-05-17T05:33:12.839Z,2.62
2019-05-17T05:35:43.015Z,4.17
2019-05-17T05:38:13.211Z,3.12
2019-05-17T05:40:43.474Z,1.60
2019-05-17T05:43:12.903Z,1.72
2019-05-17T05:45:42.226Z,1.92
2019-05-17T05:48:12.885Z,1.57
2019-05-17T05:50:43.775Z,1.35
2019-05-17T05:53:13.346Z,1.37
2019-05-17T05:55:43.378Z,1.17
2019-05-17T05:58:13.333Z,1.40
2019-05-17T06:00:43.186Z,1.42
2019-05-17T06:03:12.805Z,0.80
2019-05-17T06:05:42.690Z,1.02
2019-05-17T06:08:12.583Z,0.95
2019-05-17T06:10:43.024Z,1.40
2019-05-17T06:13:13.055Z,1.50
2019-05-17T06:15:43.155Z,1.07
2019-05-17T06:18:12.775Z,1.45
2019-05-17T06:20:42.228Z,0.90
2019-05-17T06:23:12.392Z,1.30
2019-05-17T06:25:43.420Z,0.80
2019-05-17T06:28:13.228Z,0.93
2019-05-17T06:30:43.223Z,1.12
2019-05-17T06:33:26.799Z,1.25
2019-05-17T06:35:44.095Z,1.15
2019-05-17T06:38:13.480Z,1.17
2019-05-17T06:40:42.821Z,2.10
2019-05-17T06:43:13.140Z,4.67
2019-05-17T06:45:43.173Z,1.52
2019-05-17T06:48:12.563Z,1.27
2019-05-17T06:50:42.963Z,1.37
2019-05-17T06:53:12.822Z,1.17
2019-05-17T06:55:42.749Z,1.70
2019-05-17T06:58:12.635Z,1.15
2019-05-17T07:00:42.078Z,1.30
2019-05-17T07:03:11.483Z,1.15
2019-05-17T07:05:42.627Z,1.10
2019-05-17T07:08:11.969Z,1.00
2019-05-17T07:10:41.374Z,1.02
2019-05-17T07:13:10.980Z,1.00
2019-05-17T07:15:47.400Z,1.27
2019-05-17T07:18:11.875Z,3.15
2019-05-17T07:20:41.212Z,1.70
2019-05-17T07:23:10.962Z,1.12
2019-05-17T07:25:40.351Z,2.65
2019-05-17T07:28:10.236Z,3.42
2019-05-17T07:30:40.380Z,3.10
2019-05-17T07:33:10.349Z,2.05
2019-05-17T07:35:40.088Z,1.60
2019-05-17T07:38:10.552Z,1.65
2019-05-17T07:40:40.777Z,0.90
2019-05-17T07:43:13.794Z,1.27
2019-05-17T07:45:41.226Z,0.68
2019-05-17T07:48:10.581Z,0.90
2019-05-17T07:50:40.119Z,1.10
2019-05-17T07:53:10.379Z,1.02
2019-05-17T07:55:40.148Z,1.55
2019-05-17T07:58:10.123Z,1.40
2019-05-17T08:00:40.153Z,1.20
2019-05-17T08:03:12.965Z,1.00
2019-05-17T08:05:41.064Z,1.10
2019-05-17T08:08:10.730Z,0.75
2019-05-17T08:10:41.119Z,1.00
2019-05-17T08:13:24.795Z,1.05
2019-05-17T08:15:41.951Z,0.85
2019-05-17T08:18:11.336Z,0.80
2019-05-17T08:20:40.749Z,0.95
2019-05-17T08:23:10.937Z,1.00
2019-05-17T08:25:51.887Z,1.20
2019-05-17T08:28:11.397Z,1.12
2019-05-17T08:30:41.308Z,0.93
2019-05-17T08:33:11.369Z,1.10
2019-05-17T08:35:41.048Z,1.17
2019-05-17T08:38:10.767Z,0.60
2019-05-17T08:40:40.794Z,2.00
2019-05-17T08:43:10.330Z,0.90
2019-05-17T08:45:40.792Z,1.32
2019-05-17T08:48:10.508Z,1.65
2019-05-17T08:50:40.630Z,1.30
2019-05-17T08:53:10.766Z,1.00
2019-05-17T08:55:41.031Z,1.10
2019-05-17T08:58:10.871Z,1.15
2019-05-17T09:00:40.978Z,1.57
2019-05-17T09:03:10.928Z,1.05
2019-05-17T09:05:41.788Z,1.17
2019-05-17T09:08:11.466Z,1.00
2019-05-17T09:10:41.411Z,0.90
2019-05-17T09:13:14.559Z,1.45
2019-05-17T09:15:41.891Z,1.20
2019-05-17T09:18:11.226Z,1.02
2019-05-17T09:20:40.864Z,1.17
2019-05-17T09:23:10.308Z,1.10
2019-05-17T09:25:40.036Z,1.42
2019-05-17T09:28:10.199Z,1.10
2019-05-17T09:30:40.738Z,1.20
2019-05-17T09:33:11.253Z,0.90
2019-05-17T09:35:41.300Z,1.07
2019-05-17T09:38:11.050Z,0.95
2019-05-17T09:40:40.547Z,1.30
2019-05-17T09:43:10.551Z,0.90
2019-05-17T09:45:40.786Z,1.45
2019-05-17T09:48:10.689Z,1.47
2019-05-17T09:50:40.407Z,1.40
2019-05-17T09:53:10.828Z,1.40
2019-05-17T09:55:40.834Z,1.20
2019-05-17T09:58:10.191Z,1.35
2019-05-17T10:00:39.593Z,1.67
2019-05-17T10:03:09.873Z,1.20
2019-05-17T10:05:40.654Z,1.42
2019-05-17T10:08:11.007Z,1.07
2019-05-17T10:10:40.525Z,1.25
2019-05-17T10:13:10.072Z,1.42
2019-05-17T10:15:40.831Z,1.10
2019-05-17T10:18:11.206Z,1.75
2019-05-17T10:20:41.014Z,1.32
2019-05-17T10:23:10.856Z,0.85
2019-05-17T10:25:40.999Z,1.00
2019-05-17T10:28:10.437Z,1.20
2019-05-17T10:30:40.239Z,1.00
2019-05-17T10:33:10.159Z,0.90
2019-05-17T10:35:40.723Z,1.50
2019-05-17T10:38:10.600Z,0.90
2019-05-17T10:40:41.090Z,1.30
2019-05-17T10:43:10.618Z,1.03
2019-05-17T10:45:40.563Z,1.23
2019-05-17T10:48:10.590Z,1.27
2019-05-17T10:50:40.637Z,1.77
2019-05-17T10:53:10.470Z,0.73
2019-05-17T10:55:39.988Z,1.03
2019-05-17T10:58:10.037Z,1.13
2019-05-17T11:00:41.328Z,1.03
2019-05-17T11:03:11.325Z,0.93
2019-05-17T11:05:40.741Z,1.43
2019-05-17T11:08:10.885Z,0.83
2019-05-17T11:10:40.967Z,1.23
2019-05-17T11:13:10.302Z,1.20
2019-05-17T11:15:39.702Z,0.70
2019-05-17T11:18:09.063Z,1.10
2019-05-17T11:20:38.467Z,1.20
2019-05-17T11:23:07.811Z,0.80
2019-05-17T11:25:37.157Z,0.70
2019-05-17T11:28:06.722Z,0.70
2019-05-17T11:30:36.127Z,0.80
2019-05-17T11:33:05.457Z,0.87
2019-05-17T11:35:34.799Z,1.00
2019-05-17T11:38:04.299Z,1.40
2019-05-17T11:40:33.643Z,0.70
2019-05-17T11:43:02.990Z,0.63
2019-05-17T11:45:32.922Z,1.53
2019-05-17T11:48:02.728Z,0.50
2019-05-17T11:50:32.062Z,0.70
2019-05-17T11:53:01.628Z,0.83
2019-05-17T11:55:31.052Z,1.03
2019-05-17T11:58:00.450Z,0.93
2019-05-17T12:00:29.795Z,1.20
2019-05-17T12:02:59.207Z,0.83
2019-05-17T12:05:28.539Z,1.90
2019-05-17T12:07:57.886Z,2.27
2019-05-17T12:10:27.281Z,0.80
2019-05-17T12:12:56.963Z,0.83
2019-05-17T12:15:26.302Z,1.00
2019-05-17T12:17:55.646Z,0.90
2019-05-17T12:20:25.566Z,0.70
2019-05-17T12:22:54.915Z,2.23
2019-05-17T12:25:24.271Z,0.93
2019-05-17T12:27:53.602Z,0.80
2019-05-17T12:30:23.453Z,0.80
2019-05-17T12:32:53.027Z,0.70
2019-05-17T12:35:22.360Z,1.10
2019-05-17T12:37:51.698Z,9.87
2019-05-17T12:40:22.079Z,9.73
2019-05-17T12:42:51.458Z,14.87
2019-05-17T12:45:20.810Z,6.40
2019-05-17T12:47:50.224Z,2.70
2019-05-17T12:50:19.562Z,4.97
2019-05-17T12:52:48.910Z,2.70
2019-05-17T12:55:18.927Z,2.40
2019-05-17T12:57:48.334Z,2.07
2019-05-17T13:00:18.271Z,1.30
2019-05-17T13:02:47.611Z,1.37
2019-05-17T13:05:16.945Z,1.07
2019-05-17T13:07:46.516Z,0.73
2019-05-17T13:10:16.366Z,0.90
2019-05-17T13:12:45.776Z,1.03
2019-05-17T13:15:15.518Z,0.90
2019-05-17T13:17:44.867Z,1.33
2019-05-17T13:20:14.514Z,0.80
2019-05-17T13:22:43.858Z,0.70
2019-05-17T13:25:13.485Z,0.80
2019-05-17T13:27:42.879Z,0.77
2019-05-17T13:30:12.799Z,0.87
2019-05-17T13:32:42.236Z,0.80
2019-05-17T13:35:11.967Z,0.83
2019-05-17T13:37:41.308Z,1.10
2019-05-17T13:40:11.559Z,0.67
2019-05-17T13:42:40.967Z,0.57
2019-05-17T13:45:11.384Z,0.90
2019-05-17T13:47:40.714Z,0.93
2019-05-17T13:50:10.931Z,0.77
2019-05-17T13:52:40.267Z,0.70
2019-05-17T13:55:11.510Z,1.10
2019-05-17T13:57:41.120Z,0.77
2019-05-17T14:00:11.337Z,1.03
2019-05-17T14:02:40.691Z,0.80
2019-05-17T14:05:10.927Z,0.60
2019-05-17T14:07:40.300Z,1.50
2019-05-17T14:10:26.315Z,0.93
2019-05-17T14:12:40.999Z,0.60
2019-05-17T14:15:11.296Z,0.77
2019-05-17T14:17:40.692Z,1.07
2019-05-17T14:20:10.630Z,0.77
2019-05-17T14:22:40.038Z,0.60
2019-05-17T14:25:09.783Z,0.80
2019-05-17T14:27:39.188Z,0.60
2019-05-17T14:30:09.539Z,1.13
2019-05-17T14:32:38.959Z,0.70
2019-05-17T14:35:08.833Z,0.70
2019-05-17T14:37:38.551Z,0.70
2019-05-17T14:40:09.089Z,0.50
2019-05-17T14:42:38.418Z,0.70
2019-05-17T14:45:08.619Z,0.87
2019-05-17T14:47:38.006Z,1.10
2019-05-17T14:50:08.152Z,1.00
2019-05-17T14:52:37.497Z,0.77
2019-05-17T14:55:08.008Z,0.80
2019-05-17T14:57:37.343Z,0.80
2019-05-17T15:00:07.133Z,1.07
2019-05-17T15:02:36.559Z,0.78
2019-05-17T15:05:05.974Z,0.90
2019-05-17T15:07:35.438Z,1.10
2019-05-17T15:10:05.887Z,0.57
2019-05-17T15:12:35.273Z,1.17
2019-05-17T15:15:05.469Z,0.85
2019-05-17T15:17:35.420Z,1.00
2019-05-17T15:20:05.470Z,0.80
2019-05-17T15:22:34.886Z,1.00
2019-05-17T15:25:05.225Z,1.47
2019-05-17T15:27:34.643Z,5.08
2019-05-17T15:30:04.577Z,2.60
2019-05-17T15:32:34.521Z,1.32
2019-05-17T15:35:03.944Z,1.57
2019-05-17T15:37:33.297Z,1.00
2019-05-17T15:40:02.794Z,0.75
2019-05-17T15:42:43.592Z,0.90
2019-05-17T15:45:03.540Z,0.85
2019-05-17T15:47:33.019Z,1.20
2019-05-17T15:50:02.671Z,0.72
2019-05-17T15:52:32.083Z,0.90
2019-05-17T15:55:01.696Z,0.88
2019-05-17T15:57:31.114Z,0.72
2019-05-17T16:00:00.446Z,2.45
2019-05-17T16:02:29.906Z,2.95
2019-05-17T16:04:59.250Z,2.10
2019-05-17T16:07:28.579Z,2.45
2019-05-17T16:09:57.905Z,2.20
2019-05-17T16:12:27.241Z,2.37
2019-05-17T16:14:56.654Z,2.50
2019-05-17T16:17:26.063Z,1.90
2019-05-17T16:19:55.427Z,1.80
2019-05-17T16:22:24.851Z,3.35
2019-05-17T16:24:54.314Z,2.00
2019-05-17T16:27:23.832Z,1.30
2019-05-17T16:29:53.310Z,1.92
2019-05-17T16:32:22.880Z,1.50
2019-05-17T16:34:52.215Z,1.60
2019-05-17T16:37:21.584Z,1.60
2019-05-17T16:39:51.252Z,1.90
2019-05-17T16:42:20.579Z,1.40
2019-05-17T16:44:49.924Z,1.07
2019-05-17T16:47:19.527Z,0.88
2019-05-17T16:49:48.994Z,0.72
2019-05-17T16:52:18.329Z,0.70
2019-05-17T16:54:47.667Z,1.55
2019-05-17T16:57:17.002Z,1.35
2019-05-17T16:59:46.438Z,0.85
2019-05-17T17:02:15.868Z,1.02
2019-05-17T17:04:45.275Z,1.30
2019-05-17T17:07:14.604Z,0.90
2019-05-17T17:09:43.948Z,1.20
2019-05-17T17:12:13.275Z,1.20
2019-05-17T17:14:45.167Z,1.10
2019-05-17T17:17:14.560Z,1.30
2019-05-17T17:19:43.956Z,1.20
2019-05-17T17:22:13.339Z,1.10
2019-05-17T17:24:42.666Z,0.90
2019-05-17T17:27:11.995Z,1.35
2019-05-17T17:29:41.331Z,1.00
2019-05-17T17:32:21.111Z,1.10
2019-05-17T17:34:41.723Z,1.57
2019-05-17T17:37:11.070Z,1.15
2019-05-17T17:39:40.419Z,0.93
2019-05-17T17:42:09.858Z,1.25
2019-05-17T17:44:39.251Z,1.10
2019-05-17T17:47:08.575Z,1.45
2019-05-17T17:49:37.887Z,1.10
2019-05-17T17:52:07.219Z,1.32
2019-05-17T17:54:36.623Z,1.40
2019-05-17T17:57:05.975Z,1.52
2019-05-17T17:59:35.377Z,1.37
2019-05-17T18:02:04.719Z,1.57
2019-05-17T18:04:34.058Z,1.50
2019-05-17T18:07:03.400Z,1.85
2019-05-17T18:09:32.800Z,1.15
2019-05-17T18:12:02.195Z,1.27
2019-05-17T18:14:31.589Z,1.80
2019-05-17T18:17:00.911Z,1.00
2019-05-17T18:19:30.253Z,1.22
2019-05-17T18:21:59.639Z,1.40
2019-05-17T18:24:28.955Z,0.98
2019-05-17T18:26:58.361Z,1.12
2019-05-17T18:29:27.699Z,3.25
2019-05-17T18:31:57.027Z,2.15
2019-05-17T18:34:26.353Z,1.22
2019-05-17T18:36:55.681Z,1.10
2019-05-17T18:39:25.008Z,1.60
2019-05-17T18:41:54.899Z,1.92
2019-05-17T18:44:27.743Z,1.55
2019-05-17T18:46:55.395Z,1.50
2019-05-17T18:49:24.717Z,1.50
2019-05-17T18:51:54.163Z,1.20
2019-05-17T18:54:23.510Z,1.12
2019-05-17T18:56:52.850Z,1.92
2019-05-17T18:59:23.069Z,1.72
2019-05-17T19:01:52.582Z,2.15
2019-05-17T19:04:22.062Z,4.20
2019-05-17T19:06:51.499Z,6.55
2019-05-17T19:09:20.838Z,7.53
2019-05-17T19:11:50.214Z,4.97
2019-05-17T19:14:19.675Z,6.75
2019-05-17T19:16:49.087Z,10.75
2019-05-17T19:19:18.490Z,6.50
2019-05-17T19:21:47.858Z,5.60
2019-05-17T19:24:17.274Z,6.97
2019-05-17T19:26:46.599Z,6.20
2019-05-17T19:29:15.959Z,6.33
2019-05-17T19:31:45.295Z,6.55
2019-05-17T19:34:14.629Z,6.00
2019-05-17T19:36:44.023Z,6.10
2019-05-17T19:39:13.354Z,5.67
2019-05-17T19:41:43.212Z,3.50
2019-05-17T19:44:12.655Z,5.35
2019-05-17T19:46:42.011Z,3.10
2019-05-17T19:49:11.341Z,3.27
2019-05-17T19:51:40.674Z,1.95
2019-05-17T19:54:09.983Z,1.50
2019-05-17T19:56:39.314Z,1.60
2019-05-17T19:59:08.641Z,1.87
2019-05-17T20:01:37.971Z,1.70
2019-05-17T20:04:07.292Z,1.80
2019-05-17T20:06:36.711Z,1.98
2019-05-17T20:09:06.802Z,1.37
2019-05-17T20:11:36.143Z,1.40
2019-05-17T20:14:05.547Z,1.67
2019-05-17T20:16:34.873Z,2.00
2019-05-17T20:19:04.194Z,2.10
2019-05-17T20:21:33.517Z,2.02
2019-05-17T20:24:02.851Z,2.05
2019-05-17T20:26:32.241Z,2.05
2019-05-17T20:29:01.584Z,1.85
2019-05-17T20:31:30.979Z,1.40
2019-05-17T20:34:00.298Z,1.85
2019-05-17T20:36:29.672Z,1.98
2019-05-17T20:38:59.055Z,2.00
2019-05-17T20:41:28.448Z,1.42
2019-05-17T20:43:57.771Z,1.50
2019-05-17T20:46:30.139Z,1.30
2019-05-17T20:48:58.139Z,2.05
2019-05-17T20:51:27.471Z,1.30
2019-05-17T20:53:56.792Z,1.55
2019-05-17T20:56:33.069Z,1.52
2019-05-17T20:58:57.183Z,1.15
2019-05-17T21:01:26.510Z,1.62
2019-05-17T21:03:55.911Z,1.20
2019-05-17T21:06:25.246Z,1.40
2019-05-17T21:08:54.585Z,1.40
2019-05-17T21:11:23.986Z,1.27
2019-05-17T21:13:53.324Z,1.52
2019-05-17T21:16:22.684Z,1.65
2019-05-17T21:18:52.052Z,1.67
2019-05-17T21:21:21.376Z,1.65
2019-05-17T21:23:50.694Z,1.35
2019-05-17T21:26:20.023Z,1.70
2019-05-17T21:28:49.357Z,1.50
2019-05-17T21:31:18.770Z,1.55
2019-05-17T21:33:48.611Z,1.85
2019-05-17T21:36:17.987Z,1.40
2019-05-17T21:38:47.319Z,1.22
2019-05-17T21:41:16.678Z,1.57
2019-05-17T21:43:46.071Z,1.45
2019-05-17T21:46:15.402Z,2.98
2019-05-17T21:48:44.830Z,4.72
2019-05-17T21:51:14.786Z,2.52
2019-05-17T21:53:44.107Z,2.62
2019-05-17T21:56:13.437Z,2.15
2019-05-17T21:58:42.854Z,2.52
2019-05-17T22:01:22.119Z,2.50
2019-05-17T22:03:51.457Z,1.75
2019-05-17T22:06:21.054Z,1.70
2019-05-17T22:08:50.797Z,1.92
2019-05-17T22:11:20.128Z,1.32
2019-05-17T22:13:49.459Z,1.40
2019-05-17T22:16:20.161Z,1.72
2019-05-17T22:18:49.753Z,1.98
2019-05-17T22:21:19.619Z,2.20
2019-05-17T22:23:48.944Z,4.00
2019-05-17T22:26:18.274Z,2.67
2019-05-17T22:28:47.600Z,1.87
2019-05-17T22:31:16.960Z,2.35
2019-05-17T22:33:46.381Z,3.58
2019-05-17T22:36:15.789Z,2.20
2019-05-17T22:38:45.122Z,2.20
2019-05-17T22:41:14.455Z,2.45
2019-05-17T22:43:43.813Z,2.70
2019-05-17T22:46:13.217Z,1.82
2019-05-17T22:48:42.560Z,2.25
2019-05-17T22:51:12.256Z,2.77
2019-05-17T22:53:41.603Z,1.70
2019-05-17T22:56:10.941Z,1.20
2019-05-17T22:58:40.278Z,1.30
2019-05-17T23:01:09.617Z,1.50
2019-05-17T23:03:38.946Z,1.00
2019-05-17T23:06:08.426Z,1.00
2019-05-17T23:08:37.875Z,1.50
2019-05-17T23:11:07.218Z,1.10
2019-05-17T23:13:36.555Z,1.35
2019-05-17T23:16:08.664Z,1.20
2019-05-17T23:18:38.073Z,1.50
2019-05-17T23:21:07.403Z,1.55
2019-05-17T23:23:36.739Z,1.42
2019-05-17T23:26:06.081Z,1.90
2019-05-17T23:28:35.494Z,1.17
2019-05-17T23:31:05.290Z,1.10
2019-05-17T23:33:34.610Z,1.20
2019-05-17T23:36:03.954Z,1.20
2019-05-17T23:38:33.365Z,1.35
2019-05-17T23:41:02.699Z,1.00
2019-05-17T23:43:32.039Z,1.40
2019-05-17T23:46:01.384Z,1.15
2019-05-17T23:48:30.714Z,1.62
2019-05-17T23:51:00.053Z,1.20
2019-05-17T23:53:29.463Z,1.50
2019-05-17T23:55:58.786Z,1.45
2019-05-17T23:58:28.128Z,1.20
